Time;durP1;ratioP1;P1;durP2;ratioP2;P2;SDS_P1;SDS_P2;PMS_P1;PMS_P2;Temp;Humidity;BMP_temperature;BMP_pressure;BME280_temperature;BME280_humidity;BME280_pressure;Samples;Min_cycle;Max_cycle;Signal;HPM_P1;HPM_P2
2023/06/20 00:01:32;;;;;;;0.50;0.20;;;;;;;22.30;100.00;99821.78;5053415;28;21036;-51
2023/06/20 00:03:58;;;;;;;0.50;0.20;;;;;;;22.08;100.00;99817.34;5060744;28;20463;-51
2023/06/20 00:06:25;;;;;;;0.50;0.20;;;;;;;21.92;100.00;99822.25;5053209;28;20561;-50
2023/06/20 00:08:51;;;;;;;0.50;0.20;;;;;;;21.69;100.00;99825.03;5053473;28;20536;-50
2023/06/20 00:11:18;;;;;;;0.50;0.30;;;;;;;21.69;100.00;99825.03;5053068;28;21059;-50
2023/06/20 00:13:44;;;;;;;0.50;0.20;;;;;;;21.91;100.00;99825.97;5045315;28;20474;-51
2023/06/20 00:16:11;;;;;;;0.50;0.20;;;;;;;22.12;100.00;99826.91;5040678;28;20529;-51
2023/06/20 00:18:38;;;;;;;0.50;0.20;;;;;;;22.10;100.00;99823.47;5046004;28;21003;-51
2023/06/20 00:21:04;;;;;;;0.50;0.20;;;;;;;22.34;100.00;99813.28;5051704;28;21020;-52
2023/06/20 00:23:31;;;;;;;0.50;0.30;;;;;;;22.22;100.00;99817.03;5047040;28;20495;-52
2023/06/20 00:25:57;;;;;;;0.50;0.30;;;;;;;22.19;100.00;99809.16;5051579;28;20470;-51
2023/06/20 00:28:24;;;;;;;0.50;0.20;;;;;;;22.36;100.00;99803.19;5054245;28;20549;-52
2023/06/20 00:30:50;;;;;;;0.50;0.20;;;;;;;22.35;100.00;99800.63;5052807;28;20885;-50
2023/06/20 00:33:20;;;;;;;0.50;0.20;;;;;;;22.25;100.00;99800.53;5052839;28;20543;-50
2023/06/20 00:35:46;;;;;;;0.50;0.20;;;;;;;22.55;100.00;99796.19;5052617;28;20496;-50
2023/06/20 00:38:13;;;;;;;0.50;0.20;;;;;;;22.47;100.00;99799.53;5052799;28;20979;-51
2023/06/20 00:40:39;;;;;;;0.70;0.70;;;;;;;22.34;100.00;99802.47;5053941;28;20542;-52
2023/06/20 00:43:07;;;;;;;0.50;0.20;;;;;;;22.57;100.00;99797.75;5052617;28;20478;-50
2023/06/20 00:45:34;;;;;;;0.50;0.30;;;;;;;22.55;100.00;99805.16;5051893;28;20501;-50
2023/06/20 00:48:03;;;;;;;0.50;0.20;;;;;;;22.58;100.00;99790.50;5065776;23;20510;-54
2023/06/20 00:50:31;;;;;;;0.50;0.20;;;;;;;22.65;100.00;99788.97;5052655;28;20494;-54
2023/06/20 00:53:05;;;;;;;0.50;0.20;;;;;;;22.80;100.00;99793.06;5052637;28;20471;-54
2023/06/20 00:55:34;;;;;;;0.50;0.20;;;;;;;22.55;100.00;99786.19;5052495;28;20465;-55
2023/06/20 00:58:02;;;;;;;0.50;0.20;;;;;;;22.46;100.00;99795.97;5052429;28;20525;-54
2023/06/20 01:00:32;;;;;;;0.50;0.20;;;;;;;22.50;100.00;99804.72;5046682;28;20467;-54
2023/06/20 01:03:03;;;;;;;0.50;0.20;;;;;;;22.45;100.00;99799.66;5052322;28;20884;-54
2023/06/20 01:05:30;;;;;;;0.50;0.20;;;;;;;22.32;100.00;99801.72;5052292;28;21025;-54
2023/06/20 01:08:22;;;;;;;0.50;0.20;;;;;;;22.51;100.00;99809.13;5052124;28;20569;-55
2023/06/20 01:10:57;;;;;;;0.50;0.20;;;;;;;22.68;100.00;99811.25;5003228;28;21011;-55
2023/06/20 01:13:40;;;;;;;0.50;0.30;;;;;;;22.66;100.00;99806.97;5052492;28;20516;-55
2023/06/20 01:16:33;;;;;;;0.50;0.20;;;;;;;22.50;100.00;99803.84;5052097;28;20455;-55
2023/06/20 01:19:15;;;;;;;0.50;0.20;;;;;;;22.48;100.00;99795.88;5051906;28;20978;-53
2023/06/20 01:21:54;;;;;;;0.50;0.20;;;;;;;22.42;100.00;99785.53;5048146;28;20469;-52
2023/06/20 01:24:35;;;;;;;0.50;0.20;;;;;;;22.39;100.00;99788.50;5047416;28;20459;-54
2023/06/20 01:27:14;;;;;;;0.50;0.20;;;;;;;22.47;100.00;99791.41;5051696;28;20486;-54
2023/06/20 01:29:47;;;;;;;0.50;0.20;;;;;;;22.58;100.00;99787.78;5033985;28;20462;-54
2023/06/20 01:32:19;;;;;;;0.50;0.30;;;;;;;22.47;100.00;99786.84;5045406;28;20830;-54
2023/06/20 01:35:00;;;;;;;0.50;0.20;;;;;;;22.31;100.00;99789.16;5051816;28;20845;-54
2023/06/20 01:37:30;;;;;;;0.50;0.20;;;;;;;22.18;100.00;99791.19;5051785;28;20488;-54
2023/06/20 01:40:00;;;;;;;0.50;0.20;;;;;;;22.20;100.00;99791.06;5051732;28;20969;-55
2023/06/20 01:42:26;;;;;;;0.50;0.20;;;;;;;22.15;100.00;99788.75;5051733;28;20463;-54
2023/06/20 01:44:58;;;;;;;0.50;0.30;;;;;;;22.29;100.00;99796.56;5051712;28;20471;-54
2023/06/20 01:47:26;;;;;;;0.50;0.20;;;;;;;22.38;100.00;99784.94;5051815;28;20486;-55
2023/06/20 01:49:54;;;;;;;0.50;0.20;;;;;;;22.01;100.00;99792.59;5051889;28;20521;-55
2023/06/20 01:52:22;;;;;;;0.50;0.20;;;;;;;22.21;100.00;99790.97;5051971;28;20490;-55
2023/06/20 01:54:51;;;;;;;0.50;0.20;;;;;;;22.20;100.00;99794.63;5051712;28;20474;-55
2023/06/20 01:57:19;;;;;;;0.50;0.20;;;;;;;22.21;100.00;99796.38;5045756;28;20485;-52
2023/06/20 01:59:45;;;;;;;0.50;0.20;;;;;;;21.89;100.00;99799.88;5056176;28;20462;-52
2023/06/20 02:02:14;;;;;;;0.50;0.30;;;;;;;21.97;100.00;99799.25;5047928;28;20474;-52
2023/06/20 02:04:42;;;;;;;0.50;0.20;;;;;;;22.05;100.00;99802.19;5055767;28;20550;-52
2023/06/20 02:07:10;;;;;;;0.50;0.20;;;;;;;22.07;100.00;99802.09;5055619;28;20496;-52
2023/06/20 02:09:37;;;;;;;0.50;0.20;;;;;;;22.04;100.00;99796.88;5055788;28;20462;-52
2023/06/20 02:12:07;;;;;;;0.50;0.20;;;;;;;21.96;100.00;99797.53;5055699;28;20467;-53
2023/06/20 02:14:34;;;;;;;0.50;0.20;;;;;;;21.73;100.00;99802.16;5055747;28;21013;-53
2023/06/20 02:17:03;;;;;;;0.50;0.30;;;;;;;21.58;100.00;99792.59;5055483;28;20490;-52
2023/06/20 02:19:30;;;;;;;0.50;0.20;;;;;;;21.61;100.00;99791.47;5055609;28;20470;-53
2023/06/20 02:21:57;;;;;;;0.50;0.20;;;;;;;21.52;100.00;99796.66;5055694;28;20565;-52
2023/06/20 02:24:30;;;;;;;0.50;0.20;;;;;;;21.56;100.00;99806.25;5055372;28;20979;-52
2023/06/20 02:26:59;;;;;;;0.50;0.30;;;;;;;21.40;100.00;99799.53;5055438;28;21070;-52
2023/06/20 02:29:29;;;;;;;0.50;0.20;;;;;;;21.42;100.00;99802.94;5055432;28;20498;-53
2023/06/20 02:31:59;;;;;;;0.50;0.30;;;;;;;21.39;100.00;99790.53;5055340;28;21069;-52
2023/06/20 02:34:26;;;;;;;0.50;0.20;;;;;;;21.63;100.00;99816.56;5055127;28;20542;-52
2023/06/20 02:36:55;;;;;;;0.50;0.23;;;;;;;21.65;100.00;99810.03;5055302;28;20486;-52
2023/06/20 02:39:26;;;;;;;0.50;0.30;;;;;;;21.66;100.00;99809.06;5055050;28;20561;-52
2023/06/20 02:41:52;;;;;;;0.50;0.20;;;;;;;21.49;100.00;99806.84;5055323;28;20461;-52
2023/06/20 02:44:19;;;;;;;0.50;0.20;;;;;;;21.22;100.00;99799.09;5054834;28;20512;-52
2023/06/20 02:47:10;;;;;;;0.50;0.20;;;;;;;21.38;100.00;99796.06;5054666;28;20498;-52
2023/06/20 02:50:06;;;;;;;0.50;0.20;;;;;;;21.39;100.00;99798.66;5055312;28;20470;-52
2023/06/20 02:52:41;;;;;;;0.50;0.20;;;;;;;21.41;100.00;99785.88;5054844;28;20469;-52
2023/06/20 02:55:36;;;;;;;0.50;0.20;;;;;;;21.64;100.00;99785.81;5054927;28;20520;-52
2023/06/20 02:58:10;;;;;;;0.50;0.20;;;;;;;21.24;100.00;99787.22;5050338;28;20971;-53
2023/06/20 03:00:38;;;;;;;0.50;0.20;;;;;;;21.12;100.00;99790.03;5054740;28;20546;-52
2023/06/20 03:03:07;;;;;;;0.50;0.20;;;;;;;21.19;100.00;99802.06;5054560;28;20911;-53
2023/06/20 03:05:38;;;;;;;0.50;0.20;;;;;;;21.07;100.00;99793.09;5054855;28;20832;-52
2023/06/20 03:08:07;;;;;;;0.50;0.30;;;;;;;21.00;100.00;99784.63;5054796;28;20479;-53
2023/06/20 03:10:34;;;;;;;0.50;0.20;;;;;;;21.08;100.00;99791.25;5053905;28;20563;-53
2023/06/20 03:13:03;;;;;;;0.50;0.20;;;;;;;21.22;100.00;99802.66;5046313;28;20501;-53
2023/06/20 03:15:30;;;;;;;0.50;0.30;;;;;;;21.39;100.00;99804.06;5054365;28;20467;-52
2023/06/20 03:18:00;;;;;;;0.50;0.20;;;;;;;21.63;100.00;99805.72;5054163;28;20486;-53
2023/06/20 03:20:29;;;;;;;0.50;0.20;;;;;;;21.74;100.00;99803.88;5054281;28;20518;-52
2023/06/20 03:22:56;;;;;;;0.50;0.20;;;;;;;21.57;100.00;99799.84;5054292;28;20600;-52
2023/06/20 03:25:22;;;;;;;0.50;0.20;;;;;;;21.67;100.00;99816.19;5054277;28;20467;-52
2023/06/20 03:27:49;;;;;;;0.50;0.20;;;;;;;21.81;100.00;99815.91;5054167;28;20537;-52
2023/06/20 03:30:16;;;;;;;0.50;0.20;;;;;;;21.79;100.00;99817.00;5053778;28;20495;-54
2023/06/20 03:32:42;;;;;;;0.50;0.20;;;;;;;21.75;100.00;99813.69;5054091;28;20462;-52
2023/06/20 03:35:09;;;;;;;0.50;0.20;;;;;;;21.66;100.00;99809.06;5054110;28;20462;-52
2023/06/20 03:37:36;;;;;;;0.50;0.20;;;;;;;21.59;100.00;99800.56;5053988;28;20491;-52
2023/06/20 03:40:03;;;;;;;0.50;0.20;;;;;;;21.71;100.00;99805.97;5054043;28;20963;-52
2023/06/20 03:42:29;;;;;;;0.50;0.33;;;;;;;21.84;100.00;99806.69;5053879;28;21050;-53
2023/06/20 03:44:55;;;;;;;0.50;0.20;;;;;;;21.87;100.00;99809.13;5053721;28;20462;-52
2023/06/20 03:47:22;;;;;;;0.50;0.20;;;;;;;21.83;100.00;99803.13;5053565;28;20494;-52
2023/06/20 03:49:48;;;;;;;0.50;0.20;;;;;;;21.72;100.00;99804.97;5053870;28;20499;-52
2023/06/20 03:52:15;;;;;;;0.50;0.20;;;;;;;21.84;100.00;99803.97;5053585;28;20490;-52
2023/06/20 03:54:41;;;;;;;0.50;0.20;;;;;;;21.93;100.00;99803.22;5053665;28;20494;-53
2023/06/20 03:57:08;;;;;;;0.50;0.20;;;;;;;21.95;100.00;99805.78;5053484;28;20536;-53
2023/06/20 03:59:34;;;;;;;0.50;0.20;;;;;;;21.88;100.00;99813.53;5053490;28;20516;-53
2023/06/20 04:02:01;;;;;;;0.50;0.20;;;;;;;21.80;100.00;99805.22;5053712;28;20465;-53
2023/06/20 04:04:29;;;;;;;0.50;0.20;;;;;;;21.81;100.00;99813.22;5053686;28;20502;-53
2023/06/20 04:06:55;;;;;;;0.50;0.20;;;;;;;21.80;100.00;99806.09;5053463;28;20483;-53
2023/06/20 04:09:26;;;;;;;0.50;0.20;;;;;;;21.84;100.00;99810.25;5053343;28;20947;-53
2023/06/20 04:11:53;;;;;;;0.50;0.20;;;;;;;21.97;100.00;99820.91;5053283;28;20490;-53
2023/06/20 04:14:20;;;;;;;0.50;0.20;;;;;;;21.91;100.00;99816.00;5053009;28;20470;-52
2023/06/20 04:16:49;;;;;;;0.50;0.20;;;;;;;22.06;100.00;99822.00;5052988;28;20509;-54
2023/06/20 04:19:16;;;;;;;0.50;0.20;;;;;;;22.14;100.00;99825.78;5053323;28;20528;-54
2023/06/20 04:21:43;;;;;;;0.50;0.20;;;;;;;22.08;100.00;99828.19;5052194;28;20458;-55
2023/06/20 04:24:09;;;;;;;0.50;0.20;;;;;;;22.06;100.00;99830.97;5052989;28;20896;-52
2023/06/20 04:26:36;;;;;;;0.53;0.37;;;;;;;22.06;100.00;99830.13;5053348;28;20477;-52
2023/06/20 04:29:02;;;;;;;0.50;0.20;;;;;;;22.08;100.00;99834.44;5053456;28;20469;-52
2023/06/20 04:31:29;;;;;;;0.50;0.20;;;;;;;22.01;100.00;99832.34;5053153;28;20577;-52
2023/06/20 04:33:57;;;;;;;0.50;0.20;;;;;;;22.09;100.00;99833.47;5053114;28;20498;-53
2023/06/20 04:36:24;;;;;;;0.50;0.20;;;;;;;22.30;100.00;99838.03;5052893;28;20800;-53
2023/06/20 04:38:50;;;;;;;0.50;0.20;;;;;;;22.86;100.00;99838.63;5052932;28;20500;-53
2023/06/20 04:41:17;;;;;;;0.50;0.20;;;;;;;22.89;100.00;99829.38;5052696;28;21000;-54
2023/06/20 04:43:44;;;;;;;0.50;0.20;;;;;;;23.71;99.05;99832.03;5052707;28;20462;-53
2023/06/20 04:46:15;;;;;;;3.90;1.40;;;;;;;24.58;95.93;99824.00;5052712;28;20470;-53
2023/06/20 04:48:44;;;;;;;0.50;0.30;;;;;;;25.09;91.85;99823.66;5052712;28;20544;-53
2023/06/20 04:51:11;;;;;;;0.50;0.20;;;;;;;25.27;90.86;99821.84;5052668;28;20902;-53
2023/06/20 04:53:38;;;;;;;0.50;0.20;;;;;;;25.61;89.03;99821.25;5052691;28;20466;-53
2023/06/20 04:56:05;;;;;;;0.50;0.20;;;;;;;25.99;87.00;99818.34;5052571;28;20959;-54
2023/06/20 04:58:32;;;;;;;0.50;0.20;;;;;;;26.06;85.79;99820.47;5052258;28;20487;-53
2023/06/20 05:01:03;;;;;;;0.50;0.30;;;;;;;26.29;84.90;99822.53;5052794;28;20486;-53
2023/06/20 05:03:30;;;;;;;0.50;0.30;;;;;;;26.43;84.58;99823.03;5052501;28;20490;-54
2023/06/20 05:05:56;;;;;;;0.50;0.30;;;;;;;26.88;83.84;99830.25;5052603;28;20467;-54
2023/06/20 05:08:23;;;;;;;0.50;0.20;;;;;;;26.98;81.96;99833.69;5052245;28;20537;-53
2023/06/20 05:10:49;;;;;;;0.50;0.30;;;;;;;27.11;81.12;99832.28;5052627;28;20549;-53
2023/06/20 05:13:16;;;;;;;0.50;0.30;;;;;;;27.09;80.92;99837.06;5052401;28;20498;-53
2023/06/20 05:15:42;;;;;;;0.50;0.20;;;;;;;27.49;80.37;99837.44;5034882;28;20814;-53
2023/06/20 05:18:09;;;;;;;0.50;0.20;;;;;;;26.94;81.05;99840.50;5052116;28;20492;-53
2023/06/20 05:20:35;;;;;;;0.50;0.30;;;;;;;26.88;81.48;99846.59;5052272;28;20951;-54
2023/06/20 05:23:02;;;;;;;0.50;0.30;;;;;;;26.91;82.07;99840.81;5052501;28;20441;-53
2023/06/20 05:25:28;;;;;;;0.50;0.23;;;;;;;26.62;82.68;99844.69;5052323;28;20489;-53
2023/06/20 05:27:55;;;;;;;0.50;0.30;;;;;;;26.70;82.46;99847.47;5052246;28;20517;-53
2023/06/20 05:30:21;;;;;;;0.50;0.20;;;;;;;26.61;82.43;99845.72;5052110;28;20445;-53
2023/06/20 05:32:48;;;;;;;0.50;0.27;;;;;;;26.94;81.72;99849.53;5051735;28;20494;-53
2023/06/20 05:35:15;;;;;;;0.50;0.27;;;;;;;27.01;81.70;99847.06;5052004;28;20541;-53
2023/06/20 05:37:45;;;;;;;0.50;0.30;;;;;;;27.09;81.44;99852.56;5051720;28;20489;-53
2023/06/20 05:40:12;;;;;;;0.50;0.30;;;;;;;27.12;80.65;99847.63;5051700;28;20979;-53
2023/06/20 05:42:38;;;;;;;0.50;0.30;;;;;;;27.36;79.99;99855.13;5051747;28;20445;-54
2023/06/20 05:45:05;;;;;;;0.50;0.20;;;;;;;27.15;80.33;99851.94;5051876;28;20445;-53
2023/06/20 05:47:32;;;;;;;0.50;0.20;;;;;;;27.30;80.28;99858.50;5033761;28;20966;-53
2023/06/20 05:49:59;;;;;;;0.50;0.30;;;;;;;27.31;79.55;99857.50;5052002;28;20440;-53
2023/06/20 05:52:26;;;;;;;0.50;0.30;;;;;;;27.41;79.82;99846.44;5052137;28;20899;-53
2023/06/20 05:54:55;;;;;;;0.50;0.30;;;;;;;27.33;79.38;99846.41;5051847;28;20959;-53
2023/06/20 05:57:21;;;;;;;0.50;0.30;;;;;;;27.00;80.43;99854.38;5051682;28;20482;-53
2023/06/20 05:59:48;;;;;;;0.50;0.30;;;;;;;27.12;80.42;99850.38;5051784;28;20467;-53
2023/06/20 06:02:15;;;;;;;0.50;0.50;;;;;;;27.64;77.61;99844.03;5051517;28;20823;-53
2023/06/20 06:04:44;;;;;;;1.80;1.70;;;;;;;27.76;78.16;99844.59;5051533;28;20437;-54
2023/06/20 06:07:11;;;;;;;0.50;0.30;;;;;;;27.66;77.80;99856.50;5051403;28;21006;-54
2023/06/20 06:09:38;;;;;;;0.50;0.20;;;;;;;27.85;76.67;99855.38;5051511;28;20998;-54
2023/06/20 06:12:04;;;;;;;0.50;0.30;;;;;;;28.23;75.80;99853.06;5051630;28;20995;-54
2023/06/20 06:14:31;;;;;;;0.50;0.30;;;;;;;28.19;75.61;99858.03;5051525;28;20956;-53
2023/06/20 06:16:58;;;;;;;0.50;0.30;;;;;;;28.85;73.44;99862.56;5051643;28;20805;-54
2023/06/20 06:19:24;;;;;;;0.50;0.30;;;;;;;27.92;76.21;99859.16;5051298;28;20634;-54
2023/06/20 06:21:51;;;;;;;0.50;0.30;;;;;;;28.31;75.21;99861.34;5051467;28;20811;-54
2023/06/20 06:24:21;;;;;;;0.50;0.30;;;;;;;28.11;75.18;99866.25;5051641;28;20466;-54
2023/06/20 06:26:48;;;;;;;0.50;0.30;;;;;;;27.92;77.15;99869.22;5051728;28;20482;-54
2023/06/20 06:29:17;;;;;;;0.50;0.30;;;;;;;27.48;77.05;99869.34;5051334;28;20444;-54
2023/06/20 06:31:44;;;;;;;0.50;0.30;;;;;;;26.93;79.67;99866.94;5051134;28;20869;-54
2023/06/20 06:34:16;;;;;;;0.50;0.30;;;;;;;26.91;80.24;99868.97;5051289;28;20468;-53
2023/06/20 06:36:48;;;;;;;0.50;0.30;;;;;;;26.95;79.64;99869.50;5051577;28;20436;-53
2023/06/20 06:39:18;;;;;;;0.50;0.30;;;;;;;27.22;78.65;99877.56;5051428;28;20458;-53
2023/06/20 06:41:48;;;;;;;0.50;0.20;;;;;;;27.14;77.75;99872.94;5051358;28;20463;-54
2023/06/20 06:44:14;;;;;;;0.50;0.30;;;;;;;27.09;78.04;99874.41;5051865;28;20462;-53
2023/06/20 06:46:41;;;;;;;0.50;0.30;;;;;;;26.97;78.96;99875.63;5055039;28;20528;-53
2023/06/20 06:49:08;;;;;;;0.50;0.30;;;;;;;27.31;77.28;99862.97;5062260;23;20546;-53
2023/06/20 06:51:44;;;;;;;0.50;0.30;;;;;;;27.28;78.50;99867.91;5053890;28;20998;-50
2023/06/20 06:54:10;;;;;;;0.50;0.30;;;;;;;26.73;79.02;99869.00;5040742;28;20510;-52
2023/06/20 06:56:37;;;;;;;0.50;0.30;;;;;;;26.95;78.21;99864.88;5048469;28;20565;-49
2023/06/20 06:59:03;;;;;;;0.50;0.20;;;;;;;27.30;77.96;99860.41;5032694;28;20483;-49
2023/06/20 07:01:30;;;;;;;0.50;0.27;;;;;;;27.23;77.96;99860.16;5030878;28;20463;-50
2023/06/20 07:03:56;;;;;;;0.50;0.30;;;;;;;27.84;76.35;99858.28;5027623;28;20477;-49
2023/06/20 07:06:23;;;;;;;0.50;0.30;;;;;;;27.85;75.39;99866.31;5027817;28;20463;-51
2023/06/20 07:08:50;;;;;;;0.50;0.30;;;;;;;27.73;75.73;99867.63;5025311;28;20519;-49
2023/06/20 07:11:17;;;;;;;0.50;0.30;;;;;;;27.34;77.12;99867.22;5027541;28;20491;-50
2023/06/20 07:13:43;;;;;;;0.50;0.30;;;;;;;27.46;77.44;99857.75;5030178;28;20837;-50
2023/06/20 07:16:10;;;;;;;0.50;0.30;;;;;;;27.89;76.75;99859.50;5026838;28;20470;-49
2023/06/20 07:18:37;;;;;;;0.50;0.30;;;;;;;27.55;76.42;99856.78;5012682;28;20509;-50
2023/06/20 07:21:04;;;;;;;0.50;0.30;;;;;;;27.69;76.24;99861.66;5031693;28;20562;-49
2023/06/20 07:23:32;;;;;;;0.60;0.43;;;;;;;27.41;77.20;99863.69;5026899;28;20497;-49
2023/06/20 07:25:59;;;;;;;0.50;0.43;;;;;;;27.15;78.64;99844.63;5026803;28;20500;-50
2023/06/20 07:28:27;;;;;;;0.50;0.30;;;;;;;27.41;76.75;99841.88;5024927;28;20547;-50
2023/06/20 07:30:54;;;;;;;0.50;0.30;;;;;;;27.20;77.76;99854.19;5027721;28;20448;-50
2023/06/20 07:33:20;;;;;;;0.50;0.30;;;;;;;27.33;76.58;99851.88;5031170;28;20531;-49
2023/06/20 07:35:47;;;;;;;0.50;0.30;;;;;;;27.48;77.14;99844.78;5027136;28;20953;-49
2023/06/20 07:38:13;;;;;;;0.50;0.23;;;;;;;27.10;77.51;99848.81;5030961;28;20518;-50
2023/06/20 07:40:43;;;;;;;0.50;0.30;;;;;;;28.10;74.68;99860.91;5025091;28;20496;-49
2023/06/20 07:43:09;;;;;;;0.50;0.30;;;;;;;27.90;75.45;99857.63;5027172;28;20431;-49
2023/06/20 07:45:36;;;;;;;0.50;0.30;;;;;;;27.66;75.75;99859.22;5025023;28;20533;-51
2023/06/20 07:48:04;;;;;;;0.50;0.30;;;;;;;28.18;74.11;99858.22;5029953;28;20889;-50
2023/06/20 07:50:30;;;;;;;0.50;0.30;;;;;;;28.44;72.34;99861.69;5024789;28;20449;-50
2023/06/20 07:52:57;;;;;;;0.50;0.30;;;;;;;28.63;71.44;99849.56;5028614;28;20473;-49
2023/06/20 07:55:23;;;;;;;0.50;0.30;;;;;;;28.17;72.76;99859.22;5025123;28;20542;-49
2023/06/20 07:57:57;;;;;;;0.50;0.30;;;;;;;28.37;72.34;99854.34;5027779;28;20479;-49
2023/06/20 08:00:25;;;;;;;0.50;0.30;;;;;;;28.22;73.37;99852.22;5029509;28;20523;-49
2023/06/20 08:02:52;;;;;;;0.50;0.30;;;;;;;28.36;72.78;99850.75;5026562;28;20517;-50
2023/06/20 08:05:19;;;;;;;0.50;0.47;;;;;;;28.11;72.56;99843.50;5026067;28;20439;-50
2023/06/20 08:07:46;;;;;;;0.50;0.30;;;;;;;28.46;70.73;99843.25;5033607;28;20893;-49
2023/06/20 08:10:16;;;;;;;0.50;0.30;;;;;;;28.93;68.05;99839.88;5021617;28;20443;-50
2023/06/20 08:12:42;;;;;;;0.50;0.30;;;;;;;28.97;67.56;99835.75;5032383;28;20910;-50
2023/06/20 08:15:10;;;;;;;0.60;0.53;;;;;;;28.89;67.28;99835.75;5022492;28;20445;-50
2023/06/20 08:17:36;;;;;;;0.50;0.30;;;;;;;28.20;69.50;99837.88;5018756;28;20863;-50
2023/06/20 08:20:06;;;;;;;0.50;0.30;;;;;;;28.80;68.58;99844.97;5011103;28;20449;-50
2023/06/20 08:22:33;;;;;;;0.50;0.30;;;;;;;28.69;68.39;99837.97;5028625;28;20455;-49
2023/06/20 08:25:00;;;;;;;0.50;0.30;;;;;;;28.43;69.03;99837.25;5025864;28;20980;-49
2023/06/20 08:27:26;;;;;;;0.50;0.30;;;;;;;28.57;68.34;99834.72;5026032;28;20487;-50
2023/06/20 08:29:53;;;;;;;0.50;0.30;;;;;;;28.94;68.56;99841.56;5027596;28;20525;-49
2023/06/20 08:32:20;;;;;;;0.50;0.30;;;;;;;28.88;67.65;99831.28;5027168;28;20499;-49
2023/06/20 08:34:50;;;;;;;1.67;1.17;;;;;;;28.78;68.39;99834.19;5029762;28;20874;-49
2023/06/20 08:37:21;;;;;;;0.50;0.20;;;;;;;28.44;70.35;99847.19;5026606;28;20464;-50
2023/06/20 08:39:48;;;;;;;0.50;0.20;;;;;;;28.50;69.93;99833.66;5028944;28;20474;-50
2023/06/20 08:42:15;;;;;;;0.50;0.30;;;;;;;28.40;70.80;99824.78;5025289;28;20484;-50
2023/06/20 08:44:42;;;;;;;0.50;0.30;;;;;;;28.66;69.06;99835.56;5024107;28;20446;-49
2023/06/20 08:47:23;;;;;;;0.50;0.40;;;;;;;29.24;68.39;99829.00;5028972;28;20463;-49
2023/06/20 08:49:49;;;;;;;0.50;0.30;;;;;;;29.42;66.50;99828.78;5026742;28;20445;-50
2023/06/20 08:52:21;;;;;;;0.50;0.30;;;;;;;29.75;65.35;99815.84;5027258;28;20939;-49
2023/06/20 08:54:48;;;;;;;0.50;0.30;;;;;;;29.86;62.80;99814.56;5025636;28;20442;-49
2023/06/20 08:57:18;;;;;;;0.50;0.30;;;;;;;29.50;63.87;99812.34;5026509;28;20470;-50
2023/06/20 08:59:45;;;;;;;0.50;0.30;;;;;;;29.93;63.79;99818.31;5032543;28;20496;-49
2023/06/20 09:02:11;;;;;;;0.50;0.30;;;;;;;29.98;63.63;99821.34;5023018;28;20443;-50
2023/06/20 09:04:38;;;;;;;0.50;0.30;;;;;;;29.81;62.49;99808.78;5029717;28;20498;-50
2023/06/20 09:07:16;;;;;;;0.50;0.30;;;;;;;30.56;61.57;99807.06;5027628;28;20993;-50
2023/06/20 09:09:43;;;;;;;0.50;0.40;;;;;;;30.37;60.84;99810.34;5026379;28;20450;-50
2023/06/20 09:12:10;;;;;;;0.50;0.30;;;;;;;30.74;61.10;99800.47;5028668;28;20550;-51
2023/06/20 09:14:36;;;;;;;0.50;0.30;;;;;;;30.75;60.43;99802.16;5024877;28;20944;-50
2023/06/20 09:17:04;;;;;;;0.50;0.30;;;;;;;29.65;64.87;99796.88;5025437;28;20442;-51
2023/06/20 09:19:42;;;;;;;0.50;0.30;;;;;;;29.37;66.24;99795.59;5026964;28;20518;-50
2023/06/20 09:22:16;;;;;;;0.50;0.30;;;;;;;29.46;65.09;99802.72;5029021;28;20436;-50
2023/06/20 09:24:45;;;;;;;0.50;0.30;;;;;;;29.86;64.07;99807.19;5024211;28;20492;-50
2023/06/20 09:27:12;;;;;;;0.50;0.30;;;;;;;29.56;63.93;99806.16;5024468;28;20554;-51
2023/06/20 09:29:50;;;;;;;0.50;0.30;;;;;;;29.28;63.95;99796.66;5022026;28;20479;-49
2023/06/20 09:32:21;;;;;;;0.50;0.40;;;;;;;30.03;62.52;99791.53;5025644;28;20573;-51
2023/06/20 09:34:49;;;;;;;0.50;0.30;;;;;;;30.03;60.09;99799.75;5028597;28;20472;-50
2023/06/20 09:37:17;;;;;;;0.50;0.30;;;;;;;30.19;60.23;99799.66;5024893;28;21004;-51
2023/06/20 09:39:44;;;;;;;0.50;0.30;;;;;;;30.28;60.89;99801.28;5027663;28;20860;-50
2023/06/20 09:42:12;;;;;;;0.50;0.30;;;;;;;30.49;59.74;99795.16;5023962;28;20483;-52
2023/06/20 09:44:42;;;;;;;0.50;0.30;;;;;;;30.12;62.31;99793.19;5022693;28;20442;-50
2023/06/20 09:47:08;;;;;;;0.67;0.67;;;;;;;30.03;61.52;99797.88;5027945;28;20468;-50
2023/06/20 09:49:38;;;;;;;0.50;0.30;;;;;;;30.55;60.34;99802.63;5025643;28;20517;-52
2023/06/20 09:52:13;;;;;;;0.50;0.30;;;;;;;30.36;58.41;99800.41;5026869;28;20580;-49
2023/06/20 09:54:50;;;;;;;0.50;0.30;;;;;;;30.22;58.10;99804.78;5024150;28;20433;-50
2023/06/20 09:57:22;;;;;;;0.50;0.30;;;;;;;30.71;58.49;99800.84;5026060;28;20438;-51
2023/06/20 09:59:50;;;;;;;0.50;0.30;;;;;;;31.56;55.79;99804.03;5030845;28;20438;-50
2023/06/20 10:02:23;;;;;;;0.60;0.60;;;;;;;31.18;56.25;99798.66;5022502;28;20454;-51
2023/06/20 10:04:51;;;;;;;0.50;0.30;;;;;;;31.15;56.00;99801.75;5027605;28;20442;-50
2023/06/20 10:07:18;;;;;;;0.50;0.30;;;;;;;31.22;55.80;99804.59;5029060;28;20462;-50
2023/06/20 10:09:45;;;;;;;0.50;0.30;;;;;;;31.07;56.42;99804.56;5025245;28;20831;-52
2023/06/20 10:12:12;;;;;;;0.80;0.80;;;;;;;31.42;53.47;99794.75;5026833;28;20509;-50
2023/06/20 10:14:39;;;;;;;0.50;0.30;;;;;;;30.89;55.09;99793.09;5023924;28;20877;-50
2023/06/20 10:17:11;;;;;;;0.50;0.30;;;;;;;30.79;53.67;99787.88;5025281;28;21027;-50
2023/06/20 10:19:50;;;;;;;0.50;0.30;;;;;;;31.24;51.59;99784.13;5027895;28;20433;-51
2023/06/20 10:22:37;;;;;;;0.50;0.30;;;;;;;31.58;51.49;99784.59;5031928;28;20488;-50
2023/06/20 10:25:14;;;;;;;0.50;0.30;;;;;;;31.34;51.88;99789.34;5023677;28;20494;-51
2023/06/20 10:27:43;;;;;;;0.50;0.30;;;;;;;31.00;52.54;99783.56;5024618;28;20483;-50
2023/06/20 10:30:12;;;;;;;0.50;0.30;;;;;;;31.05;51.88;99781.94;5029595;28;20550;-51
2023/06/20 10:33:04;;;;;;;0.50;0.30;;;;;;;31.21;50.74;99781.78;5029638;28;20490;-51
2023/06/20 10:35:31;;;;;;;0.50;0.30;;;;;;;31.53;49.56;99785.19;5032154;28;20479;-50
2023/06/20 10:38:11;;;;;;;0.50;0.30;;;;;;;31.65;48.76;99785.53;5028836;28;20521;-50
2023/06/20 10:40:37;;;;;;;0.50;0.30;;;;;;;30.89;49.07;99780.22;5027795;28;20470;-50
2023/06/20 10:43:22;;;;;;;0.50;0.30;;;;;;;31.24;49.16;99788.78;5028311;28;20500;-50
2023/06/20 10:45:57;;;;;;;0.50;0.43;;;;;;;31.16;49.34;99788.88;5028348;28;20461;-51
2023/06/20 10:48:24;;;;;;;0.50;0.30;;;;;;;31.13;50.02;99792.84;5030910;28;20465;-50
2023/06/20 10:50:58;;;;;;;0.50;0.30;;;;;;;31.71;50.05;99784.78;5027155;28;20467;-51
2023/06/20 10:53:27;;;;;;;0.80;0.80;;;;;;;32.35;47.82;99771.16;5028354;28;20857;-50
2023/06/20 10:55:53;;;;;;;0.50;0.30;;;;;;;32.64;45.74;99767.38;5029388;28;20441;-50
2023/06/20 10:58:20;;;;;;;0.50;0.30;;;;;;;32.84;45.12;99762.91;5027617;28;20465;-50
2023/06/20 11:00:58;;;;;;;0.50;0.40;;;;;;;32.91;44.09;99757.47;5030876;28;20437;-51
2023/06/20 11:03:24;;;;;;;0.50;0.30;;;;;;;33.16;43.70;99764.16;5027516;28;20434;-50
2023/06/20 11:05:54;;;;;;;0.50;0.30;;;;;;;33.13;43.53;99763.72;5029881;28;20497;-50
2023/06/20 11:08:27;;;;;;;0.50;0.30;;;;;;;32.73;44.46;99766.16;5023726;28;20487;-50
2023/06/20 11:10:54;;;;;;;2.80;2.60;;;;;;;32.66;44.95;99763.38;5028585;28;20463;-51
2023/06/20 11:13:21;;;;;;;0.50;0.30;;;;;;;31.90;44.75;99764.06;5029258;28;20492;-51
2023/06/20 11:15:48;;;;;;;0.50;0.30;;;;;;;31.90;45.77;99764.06;5027711;28;20518;-50
2023/06/20 11:18:14;;;;;;;0.50;0.30;;;;;;;32.15;45.97;99761.81;5029072;28;20549;-51
2023/06/20 11:20:41;;;;;;;0.50;0.30;;;;;;;32.18;46.64;99765.00;5034508;28;20446;-52
2023/06/20 11:23:12;;;;;;;0.50;0.30;;;;;;;32.76;45.33;99754.78;5024862;28;20457;-51
2023/06/20 11:25:41;;;;;;;0.50;0.40;;;;;;;33.01;44.84;99752.41;5023546;28;20463;-50
2023/06/20 11:28:13;;;;;;;0.93;0.93;;;;;;;32.76;44.28;99756.66;5023304;28;20488;-50
2023/06/20 11:30:43;;;;;;;0.50;0.30;;;;;;;33.16;44.58;99757.81;5027704;28;20467;-50
2023/06/20 11:33:11;;;;;;;0.50;0.30;;;;;;;33.61;42.03;99761.91;5030893;28;20502;-50
2023/06/20 11:35:38;;;;;;;0.50;0.30;;;;;;;33.27;42.23;99755.31;5027955;28;20463;-50
2023/06/20 11:38:05;;;;;;;0.50;0.30;;;;;;;32.87;42.79;99754.22;5029710;28;20519;-51